»·PEaware :: 9K2JM CYBC-CYFT

9K2JM :: CYBC-CYFT

FLIGHT INFORMATION

Flight Status: Arrived
Operator: Unknown
More flights by this operator :: More flights under this callsign
Pilot: Jasem M. (4981)
Aircraft: CIRRUS SR-22
(SR22)
More flights by this aircraft type
Origin: CYBC Baie-Comeau
Canada
Destination: CYFT Makkovik
Canada
More flights between these airports :: More routes between these airports
Route: YBC YZV YYR
File this flight plan on PilotEdge
Remarks:
Altitude:
(Current/Filed)
9,000ft
Speed:
(Current/Filed)
180kts
Departed: 19-Apr-17 07:56 AM
Arrived: 19-Apr-17 10:34 AM
Distance/Time
Traveled:
487nm/2:38
Distance/Time
To Go:
Arrived

Flight Plot

Page will automatically refresh every two minutes.

Flight plan parsing failed; only flown route is shown


Map Options




Map Legend


Flown Route
Filed Route
Departure Airport
Arrival Airport
Navaid (VOR, NDB)
Fix

Horizontal Profiles

Position Reports

Time Latitude Longitude Heading Altitude Ground
Speed
19-Apr-17 07:56 49.221939 -68.069337 55 5802ft 142kts
19-Apr-17 07:57 49.248116 -68.023897 54 6975ft 146kts
19-Apr-17 07:58 49.274952 -67.977578 53 8135ft 152kts
19-Apr-17 07:59 49.304332 -67.927161 50 9004ft 177kts
19-Apr-17 08:00 49.339705 -67.866620 50 9002ft 198kts
19-Apr-17 08:01 49.376022 -67.804088 50 9001ft 199kts
19-Apr-17 08:02 49.412028 -67.741642 50 9001ft 199kts
19-Apr-17 08:03 49.448162 -67.678768 50 9002ft 200kts
19-Apr-17 08:04 49.484031 -67.616196 50 9002ft 200kts
19-Apr-17 08:05 49.520056 -67.553179 50 9002ft 200kts
19-Apr-17 08:06 49.556173 -67.489875 50 9002ft 200kts
19-Apr-17 08:07 49.592542 -67.425968 50 9003ft 200kts
19-Apr-17 08:08 49.628875 -67.361992 51 9006ft 200kts
19-Apr-17 08:09 49.662876 -67.302012 52 9014ft 198kts
19-Apr-17 08:10 49.698676 -67.238696 52 9032ft 197kts
19-Apr-17 08:11 49.733924 -67.176199 53 9055ft 193kts
19-Apr-17 08:12 49.768399 -67.114799 53 9066ft 190kts
19-Apr-17 08:13 49.802523 -67.053894 53 9067ft 189kts
19-Apr-17 08:14 49.836502 -66.993155 53 9067ft 188kts
19-Apr-17 08:15 49.870510 -66.932244 53 9067ft 188kts
19-Apr-17 08:16 49.904525 -66.871215 53 9067ft 188kts
19-Apr-17 08:17 49.938475 -66.810123 53 9067ft 188kts
19-Apr-17 08:18 49.972269 -66.749178 53 9067ft 188kts
19-Apr-17 08:19 50.006123 -66.687975 53 9067ft 188kts
19-Apr-17 08:20 50.039778 -66.626992 53 9068ft 188kts
19-Apr-17 08:21 50.073023 -66.566598 53 9068ft 188kts
19-Apr-17 08:22 50.104760 -66.508835 53 9065ft 188kts
19-Apr-17 08:23 50.137379 -66.449362 53 9064ft 188kts
19-Apr-17 08:24 50.170366 -66.389027 53 9064ft 188kts
19-Apr-17 08:25 50.202144 -66.330779 54 9064ft 187kts
19-Apr-17 08:26 50.234929 -66.270449 54 9064ft 187kts
19-Apr-17 08:27 50.268274 -66.210449 52 9064ft 188kts
19-Apr-17 08:28 50.302278 -66.151172 52 9065ft 188kts
19-Apr-17 08:29 50.336425 -66.091900 52 9065ft 188kts
19-Apr-17 08:30 50.370794 -66.032177 52 9065ft 188kts
19-Apr-17 08:31 50.405163 -65.972317 52 9065ft 188kts
19-Apr-17 08:32 50.439517 -65.912373 52 9065ft 188kts
19-Apr-17 08:33 50.473719 -65.852559 52 9065ft 188kts
19-Apr-17 08:34 50.508260 -65.792016 52 9065ft 188kts
19-Apr-17 08:35 50.542420 -65.732000 52 9065ft 188kts
19-Apr-17 08:36 50.576483 -65.672012 52 9066ft 188kts
19-Apr-17 08:37 50.610824 -65.611379 52 9066ft 188kts
19-Apr-17 08:38 50.645007 -65.550865 52 9066ft 188kts
19-Apr-17 08:39 50.679228 -65.490138 52 9066ft 188kts
19-Apr-17 08:40 50.713672 -65.428870 52 9066ft 188kts
19-Apr-17 08:41 50.748123 -65.367443 52 9066ft 188kts
19-Apr-17 08:42 50.780873 -65.308928 53 9067ft 188kts
19-Apr-17 08:43 50.814784 -65.247977 51 9051ft 194kts
19-Apr-17 08:44 50.850069 -65.184806 52 9048ft 195kts
19-Apr-17 08:45 50.885289 -65.121491 52 9047ft 195kts
19-Apr-17 08:46 50.920687 -65.057646 52 9049ft 196kts
19-Apr-17 08:47 50.956258 -64.993265 52 9058ft 197kts
19-Apr-17 08:48 50.992079 -64.928342 51 9070ft 198kts
19-Apr-17 08:49 51.028213 -64.862445 52 9083ft 199kts
19-Apr-17 08:50 51.064530 -64.796305 51 9096ft 200kts
19-Apr-17 08:51 51.100207 -64.731144 51 9098ft 200kts
19-Apr-17 08:52 51.135764 -64.666020 51 9092ft 199kts
19-Apr-17 08:53 51.170744 -64.601740 51 9191ft 195kts
19-Apr-17 08:54 51.206817 -64.535249 51 9047ft 202kts
19-Apr-17 08:55 51.243272 -64.467950 52 9003ft 200kts
19-Apr-17 08:56 51.279384 -64.401032 51 9003ft 199kts
19-Apr-17 08:57 51.314669 -64.335558 54 9002ft 199kts
19-Apr-17 08:58 51.350002 -64.269761 53 9004ft 198kts
19-Apr-17 08:59 51.385910 -64.202761 53 9002ft 199kts
19-Apr-17 09:00 51.421982 -64.135363 52 9003ft 199kts
19-Apr-17 09:01 51.457708 -64.068321 53 9003ft 198kts
19-Apr-17 09:02 51.492732 -64.000532 55 9005ft 198kts
19-Apr-17 09:03 51.528075 -63.932290 54 9001ft 198kts
19-Apr-17 09:04 51.563915 -63.864191 53 9005ft 198kts
19-Apr-17 09:05 51.599480 -63.796599 53 9004ft 199kts
19-Apr-17 09:06 51.635296 -63.728566 52 9002ft 199kts
19-Apr-17 09:07 51.670971 -63.660438 52 9005ft 199kts
19-Apr-17 09:08 51.706593 -63.592252 54 9005ft 199kts
19-Apr-17 09:09 51.742258 -63.523929 51 9005ft 200kts
19-Apr-17 09:10 51.777824 -63.455740 53 9007ft 199kts
19-Apr-17 09:11 51.813654 -63.386709 52 9006ft 199kts
19-Apr-17 09:12 51.848066 -63.320208 53 9004ft 199kts
19-Apr-17 09:13 51.883625 -63.251241 55 9006ft 199kts
19-Apr-17 09:14 51.918823 -63.182785 52 9004ft 199kts
19-Apr-17 09:15 51.954322 -63.113544 53 9005ft 200kts
19-Apr-17 09:16 51.989749 -63.044369 53 9006ft 200kts
19-Apr-17 09:17 52.025268 -62.974875 53 9006ft 199kts
19-Apr-17 09:18 52.060345 -62.905897 54 9008ft 199kts
19-Apr-17 09:19 52.095559 -62.836615 52 9007ft 199kts
19-Apr-17 09:20 52.129893 -62.768798 53 9000ft 198kts
19-Apr-17 09:21 52.164994 -62.699370 53 9001ft 198kts
19-Apr-17 09:22 52.199718 -62.630191 52 9003ft 198kts
19-Apr-17 09:23 52.234588 -62.560768 52 8993ft 199kts
19-Apr-17 09:24 52.269802 -62.490364 51 8959ft 201kts
19-Apr-17 09:25 52.305366 -62.419148 50 8897ft 203kts
19-Apr-17 09:26 52.340581 -62.348563 50 8858ft 203kts
19-Apr-17 09:27 52.375474 -62.278463 50 8855ft 202kts
19-Apr-17 09:28 52.410586 -62.207576 50 8856ft 202kts
19-Apr-17 09:29 52.445441 -62.137011 50 8856ft 202kts
19-Apr-17 09:30 52.480155 -62.066533 50 8998ft 200kts
19-Apr-17 09:31 52.515200 -61.995191 50 8998ft 202kts
19-Apr-17 09:32 52.550548 -61.923029 50 8998ft 203kts
19-Apr-17 09:33 52.585675 -61.851090 50 8998ft 203kts
19-Apr-17 09:34 52.620725 -61.779122 50 8999ft 203kts
19-Apr-17 09:35 52.655849 -61.706778 50 8999ft 203kts
19-Apr-17 09:36 52.690825 -61.634555 50 8999ft 203kts
19-Apr-17 09:37 52.725688 -61.562360 50 9000ft 203kts
19-Apr-17 09:38 52.760635 -61.489780 50 9000ft 203kts
19-Apr-17 09:39 52.795349 -61.417483 50 9000ft 203kts
19-Apr-17 09:40 52.829966 -61.345175 51 8999ft 203kts
19-Apr-17 09:41 52.864354 -61.273142 51 8998ft 203kts
19-Apr-17 09:42 52.899237 -61.199851 51 8998ft 203kts
19-Apr-17 09:43 52.933880 -61.126830 51 8999ft 202kts
19-Apr-17 09:44 52.968423 -61.053775 50 8971ft 204kts
19-Apr-17 09:45 53.003062 -60.980381 50 8972ft 204kts
19-Apr-17 09:46 53.037866 -60.906388 50 8972ft 205kts
19-Apr-17 09:47 53.072776 -60.831973 49 8972ft 206kts
19-Apr-17 09:48 53.106730 -60.759373 49 8970ft 207kts
19-Apr-17 09:49 53.140948 -60.686023 49 8985ft 207kts
19-Apr-17 09:51 53.175922 -60.610866 49 9003ft 208kts
19-Apr-17 09:52 53.210972 -60.535296 49 9003ft 208kts
19-Apr-17 09:53 53.246016 -60.459501 49 9004ft 208kts
19-Apr-17 09:54 53.280841 -60.383926 49 9004ft 208kts
19-Apr-17 09:55 53.313420 -60.313077 49 9000ft 208kts
19-Apr-17 09:56 53.361717 -60.270093 15 9001ft 199kts
19-Apr-17 09:57 53.412944 -60.237873 13 9001ft 199kts
19-Apr-17 09:58 53.464415 -60.206576 13 9001ft 199kts
19-Apr-17 09:59 53.515349 -60.175676 13 9002ft 199kts
19-Apr-17 10:00 53.566802 -60.144399 13 9002ft 199kts
19-Apr-17 10:01 53.617490 -60.113520 13 9002ft 199kts
19-Apr-17 10:02 53.669023 -60.082047 13 9002ft 199kts
19-Apr-17 10:03 53.720193 -60.050718 13 9003ft 199kts
19-Apr-17 10:04 53.771529 -60.019201 13 9003ft 199kts
19-Apr-17 10:05 53.823018 -59.987499 13 9003ft 199kts
19-Apr-17 10:06 53.874615 -59.955642 13 9004ft 199kts
19-Apr-17 10:07 53.926081 -59.923800 13 9004ft 199kts
19-Apr-17 10:08 53.977638 -59.891813 13 9004ft 199kts
19-Apr-17 10:09 54.029238 -59.859691 13 9004ft 199kts
19-Apr-17 10:10 54.080774 -59.827512 13 9005ft 199kts
19-Apr-17 10:11 54.130453 -59.796457 13 8984ft 200kts
19-Apr-17 10:12 54.182283 -59.763967 13 8955ft 200kts
19-Apr-17 10:13 54.234312 -59.731259 14 8926ft 200kts
19-Apr-17 10:14 54.286166 -59.698537 14 8920ft 200kts
19-Apr-17 10:15 54.337967 -59.665781 14 8921ft 200kts
19-Apr-17 10:16 54.389861 -59.632892 14 8921ft 200kts
19-Apr-17 10:17 54.441453 -59.600098 14 8921ft 200kts
19-Apr-17 10:18 54.493522 -59.566913 14 8638ft 197kts
19-Apr-17 10:19 54.544030 -59.534649 14 8149ft 193kts
19-Apr-17 10:20 54.593982 -59.502654 14 7663ft 192kts
19-Apr-17 10:21 54.643562 -59.470804 15 7178ft 190kts
19-Apr-17 10:22 54.691474 -59.439872 14 6680ft 176kts
19-Apr-17 10:23 54.736426 -59.410915 15 6193ft 171kts
19-Apr-17 10:24 54.780580 -59.382395 15 5711ft 169kts
19-Apr-17 10:25 54.824440 -59.353959 15 5228ft 168kts
19-Apr-17 10:26 54.866407 -59.326690 16 4751ft 167kts
19-Apr-17 10:27 54.909646 -59.298505 17 4253ft 165kts
19-Apr-17 10:28 54.952260 -59.270672 17 3760ft 164kts
19-Apr-17 10:29 54.994473 -59.243053 17 3267ft 162kts
19-Apr-17 10:30 55.036059 -59.215189 25 2752ft 163kts
19-Apr-17 10:31 55.056238 -59.148033 74 2296ft 158kts
19-Apr-17 10:32 55.067375 -59.075671 75 1876ft 151kts
19-Apr-17 10:33 55.089907 -59.085409 242 1238ft 134kts
19-Apr-17 10:34 55.083873 -59.134065 256 955ft 78kts
19-Apr-17 10:35 55.077458 -59.166279 241 521ft 67kts
19-Apr-17 10:36 55.071540 -59.188139 217 299ft 0kts
19-Apr-17 10:37 55.072069 -59.186632 68 287ft 16kts
19-Apr-17 10:38 55.073593 -59.182916 5 248ft 0kts

Navigation Log

Ident Type
Flight plan parsing failed, navigation log unavailable